sensor_id;sensor_type;location;lat;lon;timestamp;pressure;altitude;pressure_sealevel;temperature;humidity
44934;BME280;30667;43.614;1.442;2022-09-12T00:01:02;99536.34;;;23.16;81.04
44934;BME280;30667;43.614;1.442;2022-09-12T00:03:27;99532.00;;;23.15;81.13
44934;BME280;30667;43.614;1.442;2022-09-12T00:05:53;99527.53;;;23.07;82.11
44934;BME280;30667;43.614;1.442;2022-09-12T00:08:18;99531.84;;;23.04;82.76
44934;BME280;30667;43.614;1.442;2022-09-12T00:10:43;99536.44;;;22.97;83.68
44934;BME280;30667;43.614;1.442;2022-09-12T00:13:10;99539.75;;;23.06;82.73
44934;BME280;30667;43.614;1.442;2022-09-12T00:15:40;99539.22;;;22.97;83.80
44934;BME280;30667;43.614;1.442;2022-09-12T00:18:08;99537.03;;;22.83;85.34
44934;BME280;30667;43.614;1.442;2022-09-12T00:20:33;99532.28;;;22.80;85.34
44934;BME280;30667;43.614;1.442;2022-09-12T00:22:59;99532.72;;;22.82;85.38
44934;BME280;30667;43.614;1.442;2022-09-12T00:25:25;99524.72;;;22.77;86.08
44934;BME280;30667;43.614;1.442;2022-09-12T00:27:50;99529.72;;;22.94;84.74
44934;BME280;30667;43.614;1.442;2022-09-12T00:30:16;99517.56;;;22.99;84.94
44934;BME280;30667;43.614;1.442;2022-09-12T00:32:41;99526.09;;;22.87;85.62
44934;BME280;30667;43.614;1.442;2022-09-12T00:35:07;99518.97;;;22.85;85.57
44934;BME280;30667;43.614;1.442;2022-09-12T00:37:33;99520.38;;;22.72;86.92
44934;BME280;30667;43.614;1.442;2022-09-12T00:39:59;99525.75;;;22.65;87.54
44934;BME280;30667;43.614;1.442;2022-09-12T00:42:24;99514.19;;;22.56;88.75
44934;BME280;30667;43.614;1.442;2022-09-12T00:44:51;99512.19;;;22.53;89.01
44934;BME280;30667;43.614;1.442;2022-09-12T00:47:23;99522.00;;;22.50;89.56
44934;BME280;30667;43.614;1.442;2022-09-12T00:50:06;99514.09;;;22.75;87.61
44934;BME280;30667;43.614;1.442;2022-09-12T00:52:43;99510.88;;;23.00;86.00
44934;BME280;30667;43.614;1.442;2022-09-12T00:58:07;99508.97;;;22.74;88.51
44934;BME280;30667;43.614;1.442;2022-09-12T01:00:33;99510.31;;;22.60;89.33
44934;BME280;30667;43.614;1.442;2022-09-12T01:03:02;99517.03;;;22.59;90.14
44934;BME280;30667;43.614;1.442;2022-09-12T01:05:30;99523.94;;;22.49;91.17
44934;BME280;30667;43.614;1.442;2022-09-12T01:08:00;99517.22;;;22.47;91.40
44934;BME280;30667;43.614;1.442;2022-09-12T01:10:26;99514.44;;;22.43;91.41
44934;BME280;30667;43.614;1.442;2022-09-12T01:12:52;99508.53;;;22.45;91.79
44934;BME280;30667;43.614;1.442;2022-09-12T01:15:18;99505.72;;;22.41;92.30
44934;BME280;30667;43.614;1.442;2022-09-12T01:26:20;99506.75;;;22.33;94.49
44934;BME280;30667;43.614;1.442;2022-09-12T01:34:23;99499.84;;;22.20;96.07
44934;BME280;30667;43.614;1.442;2022-09-12T01:42:14;99496.28;;;22.42;94.63
44934;BME280;30667;43.614;1.442;2022-09-12T01:47:20;99483.25;;;22.39;95.93
44934;BME280;30667;43.614;1.442;2022-09-12T01:49:58;99484.47;;;22.19;97.30
44934;BME280;30667;43.614;1.442;2022-09-12T01:52:26;99489.88;;;22.11;98.62
44934;BME280;30667;43.614;1.442;2022-09-12T01:55:39;99492.91;;;22.06;98.93
44934;BME280;30667;43.614;1.442;2022-09-12T01:57:51;99491.34;;;22.05;98.80
44934;BME280;30667;43.614;1.442;2022-09-12T02:00:18;99496.53;;;22.10;98.11
44934;BME280;30667;43.614;1.442;2022-09-12T02:02:55;99493.00;;;22.33;96.50
44934;BME280;30667;43.614;1.442;2022-09-12T02:05:44;99481.75;;;22.22;97.38
44934;BME280;30667;43.614;1.442;2022-09-12T02:08:19;99475.88;;;22.24;97.38
44934;BME280;30667;43.614;1.442;2022-09-12T02:10:54;99479.25;;;22.37;96.30
44934;BME280;30667;43.614;1.442;2022-09-12T02:13:35;99469.59;;;22.23;97.75
44934;BME280;30667;43.614;1.442;2022-09-12T02:18:45;99470.63;;;22.38;96.34
44934;BME280;30667;43.614;1.442;2022-09-12T02:21:11;99472.53;;;22.61;94.92
44934;BME280;30667;43.614;1.442;2022-09-12T02:23:42;99475.16;;;22.80;93.05
44934;BME280;30667;43.614;1.442;2022-09-12T02:26:17;99471.78;;;22.94;92.00
44934;BME280;30667;43.614;1.442;2022-09-12T02:28:44;99473.19;;;22.81;93.72
44934;BME280;30667;43.614;1.442;2022-09-12T02:38:56;99485.94;;;22.62;95.82
44934;BME280;30667;43.614;1.442;2022-09-12T02:41:22;99481.28;;;22.97;92.52
44934;BME280;30667;43.614;1.442;2022-09-12T02:43:49;99485.16;;;23.23;89.09
44934;BME280;30667;43.614;1.442;2022-09-12T02:46:21;99486.63;;;23.13;90.60
44934;BME280;30667;43.614;1.442;2022-09-12T02:48:47;99490.16;;;22.83;95.25
44934;BME280;30667;43.614;1.442;2022-09-12T02:51:13;99483.44;;;22.80;94.75
44934;BME280;30667;43.614;1.442;2022-09-12T02:53:39;99482.22;;;22.78;94.88
44934;BME280;30667;43.614;1.442;2022-09-12T02:56:07;99472.47;;;22.57;98.33
44934;BME280;30667;43.614;1.442;2022-09-12T02:58:35;99465.44;;;22.60;98.69
44934;BME280;30667;43.614;1.442;2022-09-12T03:10:06;99457.78;;;22.49;100.00
44934;BME280;30667;43.614;1.442;2022-09-12T03:15:42;99458.84;;;22.41;100.00
44934;BME280;30667;43.614;1.442;2022-09-12T03:21:36;99460.97;;;22.52;100.00
44934;BME280;30667;43.614;1.442;2022-09-12T03:26:39;99462.78;;;22.40;100.00
44934;BME280;30667;43.614;1.442;2022-09-12T03:29:07;99472.97;;;22.36;100.00
44934;BME280;30667;43.614;1.442;2022-09-12T03:31:34;99472.91;;;22.59;100.00
44934;BME280;30667;43.614;1.442;2022-09-12T03:34:00;99463.28;;;22.49;100.00
44934;BME280;30667;43.614;1.442;2022-09-12T03:36:28;99462.09;;;22.47;100.00
44934;BME280;30667;43.614;1.442;2022-09-12T03:38:54;99469.09;;;22.67;100.00
44934;BME280;30667;43.614;1.442;2022-09-12T03:41:19;99469.88;;;22.98;97.99
44934;BME280;30667;43.614;1.442;2022-09-12T03:43:46;99471.38;;;22.92;97.60
44934;BME280;30667;43.614;1.442;2022-09-12T03:46:12;99473.69;;;22.87;100.00
44934;BME280;30667;43.614;1.442;2022-09-12T03:48:38;99467.53;;;23.00;96.92
44934;BME280;30667;43.614;1.442;2022-09-12T03:51:06;99468.94;;;23.17;96.54
44934;BME280;30667;43.614;1.442;2022-09-12T03:53:32;99458.34;;;23.23;93.62
44934;BME280;30667;43.614;1.442;2022-09-12T03:55:58;99461.31;;;23.07;99.15
44934;BME280;30667;43.614;1.442;2022-09-12T03:58:29;99453.50;;;22.82;100.00
44934;BME280;30667;43.614;1.442;2022-09-12T04:00:54;99453.44;;;22.75;100.00
44934;BME280;30667;43.614;1.442;2022-09-12T04:03:20;99449.81;;;23.01;97.82
44934;BME280;30667;43.614;1.442;2022-09-12T04:05:45;99447.97;;;23.09;97.58
44934;BME280;30667;43.614;1.442;2022-09-12T04:08:11;99457.84;;;22.53;100.00
44934;BME280;30667;43.614;1.442;2022-09-12T04:10:39;99450.69;;;22.48;100.00
44934;BME280;30667;43.614;1.442;2022-09-12T04:13:04;99441.38;;;22.30;100.00
44934;BME280;30667;43.614;1.442;2022-09-12T04:15:30;99438.13;;;22.24;100.00
44934;BME280;30667;43.614;1.442;2022-09-12T04:17:55;99439.31;;;22.50;100.00
44934;BME280;30667;43.614;1.442;2022-09-12T04:20:20;99438.06;;;22.47;100.00
44934;BME280;30667;43.614;1.442;2022-09-12T04:22:46;99442.81;;;22.24;100.00
44934;BME280;30667;43.614;1.442;2022-09-12T04:25:11;99451.31;;;22.65;99.36
44934;BME280;30667;43.614;1.442;2022-09-12T04:27:38;99444.56;;;22.93;96.25
44934;BME280;30667;43.614;1.442;2022-09-12T04:30:03;99431.25;;;22.98;95.03
44934;BME280;30667;43.614;1.442;2022-09-12T04:32:29;99441.81;;;22.62;96.45
44934;BME280;30667;43.614;1.442;2022-09-12T04:34:55;99444.53;;;22.32;98.81
44934;BME280;30667;43.614;1.442;2022-09-12T04:37:21;99448.72;;;22.49;98.30
44934;BME280;30667;43.614;1.442;2022-09-12T04:39:48;99444.66;;;22.39;98.22
44934;BME280;30667;43.614;1.442;2022-09-12T04:42:14;99457.94;;;22.34;98.37
44934;BME280;30667;43.614;1.442;2022-09-12T04:44:39;99456.81;;;22.65;96.29
44934;BME280;30667;43.614;1.442;2022-09-12T04:47:05;99454.25;;;22.79;95.52
44934;BME280;30667;43.614;1.442;2022-09-12T04:49:30;99447.38;;;22.96;93.40
44934;BME280;30667;43.614;1.442;2022-09-12T04:51:56;99448.66;;;23.02;92.67
44934;BME280;30667;43.614;1.442;2022-09-12T04:54:21;99439.38;;;23.18;91.85
44934;BME280;30667;43.614;1.442;2022-09-12T04:56:48;99432.56;;;23.08;91.55
44934;BME280;30667;43.614;1.442;2022-09-12T04:59:16;99440.06;;;23.08;91.34
44934;BME280;30667;43.614;1.442;2022-09-12T05:01:42;99441.56;;;23.05;92.23
44934;BME280;30667;43.614;1.442;2022-09-12T05:04:12;99448.78;;;23.13;91.24
44934;BME280;30667;43.614;1.442;2022-09-12T05:06:38;99444.00;;;23.10;91.55
44934;BME280;30667;43.614;1.442;2022-09-12T05:09:06;99449.59;;;23.14;92.00
44934;BME280;30667;43.614;1.442;2022-09-12T05:11:35;99436.56;;;23.11;92.81
44934;BME280;30667;43.614;1.442;2022-09-12T05:14:01;99434.94;;;23.10;92.96
44934;BME280;30667;43.614;1.442;2022-09-12T05:16:28;99441.31;;;23.14;93.60
44934;BME280;30667;43.614;1.442;2022-09-12T05:18:55;99450.28;;;23.07;95.08
44934;BME280;30667;43.614;1.442;2022-09-12T05:21:22;99447.72;;;23.21;93.51
44934;BME280;30667;43.614;1.442;2022-09-12T05:23:52;99447.78;;;23.29;93.21
44934;BME280;30667;43.614;1.442;2022-09-12T05:26:19;99450.13;;;23.27;92.85
44934;BME280;30667;43.614;1.442;2022-09-12T05:28:46;99457.66;;;23.30;96.09
44934;BME280;30667;43.614;1.442;2022-09-12T05:31:17;99461.97;;;23.27;95.94
44934;BME280;30667;43.614;1.442;2022-09-12T05:33:45;99460.91;;;23.39;94.72
44934;BME280;30667;43.614;1.442;2022-09-12T05:36:14;99460.84;;;23.32;95.04
44934;BME280;30667;43.614;1.442;2022-09-12T05:38:39;99468.97;;;23.21;97.76
44934;BME280;30667;43.614;1.442;2022-09-12T05:41:16;99471.13;;;23.04;100.00
44934;BME280;30667;43.614;1.442;2022-09-12T05:43:43;99465.56;;;23.01;100.00
44934;BME280;30667;43.614;1.442;2022-09-12T05:46:11;99470.09;;;23.16;99.44
44934;BME280;30667;43.614;1.442;2022-09-12T05:48:40;99466.25;;;22.94;100.00
44934;BME280;30667;43.614;1.442;2022-09-12T05:51:09;99474.16;;;22.96;100.00
44934;BME280;30667;43.614;1.442;2022-09-12T05:53:35;99477.88;;;23.07;100.00
44934;BME280;30667;43.614;1.442;2022-09-12T05:56:09;99478.09;;;23.25;100.00
44934;BME280;30667;43.614;1.442;2022-09-12T05:58:37;99480.69;;;23.11;100.00
44934;BME280;30667;43.614;1.442;2022-09-12T06:01:04;99470.63;;;23.26;100.00
44934;BME280;30667;43.614;1.442;2022-09-12T06:03:32;99473.88;;;23.35;99.43
44934;BME280;30667;43.614;1.442;2022-09-12T06:06:01;99467.63;;;23.42;97.51
44934;BME280;30667;43.614;1.442;2022-09-12T06:08:28;99466.75;;;23.34;100.00
44934;BME280;30667;43.614;1.442;2022-09-12T06:11:00;99474.75;;;23.43;100.00
44934;BME280;30667;43.614;1.442;2022-09-12T06:13:27;99474.63;;;23.32;100.00
44934;BME280;30667;43.614;1.442;2022-09-12T06:15:52;99478.25;;;23.36;100.00
44934;BME280;30667;43.614;1.442;2022-09-12T06:18:18;99480.72;;;23.48;100.00
44934;BME280;30667;43.614;1.442;2022-09-12T06:20:45;99488.84;;;23.34;100.00
44934;BME280;30667;43.614;1.442;2022-09-12T06:23:10;99479.06;;;23.40;99.61
44934;BME280;30667;43.614;1.442;2022-09-12T06:25:37;99483.91;;;23.50;97.82
44934;BME280;30667;43.614;1.442;2022-09-12T06:28:05;99483.41;;;23.41;99.60
44934;BME280;30667;43.614;1.442;2022-09-12T06:30:31;99473.53;;;23.40;100.00
44934;BME280;30667;43.614;1.442;2022-09-12T06:32:56;99485.41;;;23.44;98.28
44934;BME280;30667;43.614;1.442;2022-09-12T06:35:22;99486.72;;;23.54;97.15
44934;BME280;30667;43.614;1.442;2022-09-12T06:37:48;99483.19;;;23.57;96.63
44934;BME280;30667;43.614;1.442;2022-09-12T06:40:13;99473.34;;;23.60;98.49
44934;BME280;30667;43.614;1.442;2022-09-12T06:42:39;99478.84;;;23.56;96.66
44934;BME280;30667;43.614;1.442;2022-09-12T06:45:04;99473.78;;;23.62;95.24
44934;BME280;30667;43.614;1.442;2022-09-12T06:47:30;99470.56;;;23.60;95.21
44934;BME280;30667;43.614;1.442;2022-09-12T06:49:55;99469.38;;;23.57;96.02
44934;BME280;30667;43.614;1.442;2022-09-12T06:52:20;99481.69;;;23.63;96.07
44934;BME280;30667;43.614;1.442;2022-09-12T06:54:46;99479.63;;;23.56;98.09
44934;BME280;30667;43.614;1.442;2022-09-12T06:57:12;99485.38;;;23.40;100.00
44934;BME280;30667;43.614;1.442;2022-09-12T06:59:37;99483.06;;;23.46;97.21
44934;BME280;30667;43.614;1.442;2022-09-12T07:02:02;99492.25;;;23.57;96.39
44934;BME280;30667;43.614;1.442;2022-09-12T07:04:28;99494.22;;;23.57;98.57
44934;BME280;30667;43.614;1.442;2022-09-12T07:06:53;99487.56;;;23.62;96.04
44934;BME280;30667;43.614;1.442;2022-09-12T07:09:19;99487.59;;;23.65;95.46
44934;BME280;30667;43.614;1.442;2022-09-12T07:11:45;99482.53;;;23.71;95.71
44934;BME280;30667;43.614;1.442;2022-09-12T07:14:13;99471.88;;;23.69;96.80
44934;BME280;30667;43.614;1.442;2022-09-12T07:16:39;99473.03;;;23.68;98.29
44934;BME280;30667;43.614;1.442;2022-09-12T07:19:05;99467.53;;;23.72;95.78
44934;BME280;30667;43.614;1.442;2022-09-12T07:21:32;99467.13;;;23.70;95.42
44934;BME280;30667;43.614;1.442;2022-09-12T07:24:00;99459.25;;;23.72;96.19
44934;BME280;30667;43.614;1.442;2022-09-12T07:26:27;99464.00;;;23.71;95.17
44934;BME280;30667;43.614;1.442;2022-09-12T07:28:55;99457.28;;;23.72;96.08
44934;BME280;30667;43.614;1.442;2022-09-12T07:31:23;99452.56;;;23.73;95.73
44934;BME280;30667;43.614;1.442;2022-09-12T07:33:49;99451.00;;;23.75;95.10
44934;BME280;30667;43.614;1.442;2022-09-12T07:36:20;99458.91;;;23.77;94.98
44934;BME280;30667;43.614;1.442;2022-09-12T07:38:46;99456.19;;;23.81;96.04
44934;BME280;30667;43.614;1.442;2022-09-12T07:41:15;99451.47;;;23.81;100.00
44934;BME280;30667;43.614;1.442;2022-09-12T07:43:41;99458.50;;;23.75;97.19
44934;BME280;30667;43.614;1.442;2022-09-12T07:46:07;99457.38;;;23.80;97.31
44934;BME280;30667;43.614;1.442;2022-09-12T07:48:33;99463.28;;;23.82;97.08
44934;BME280;30667;43.614;1.442;2022-09-12T07:51:04;99462.50;;;23.81;96.19
44934;BME280;30667;43.614;1.442;2022-09-12T07:53:32;99459.75;;;23.81;97.07
44934;BME280;30667;43.614;1.442;2022-09-12T07:55:58;99463.34;;;23.85;98.72
44934;BME280;30667;43.614;1.442;2022-09-12T07:58:24;99451.50;;;23.85;97.84
44934;BME280;30667;43.614;1.442;2022-09-12T08:00:50;99470.06;;;23.84;97.71
44934;BME280;30667;43.614;1.442;2022-09-12T08:03:16;99463.75;;;23.84;96.24
44934;BME280;30667;43.614;1.442;2022-09-12T08:05:41;99468.88;;;23.85;96.58
44934;BME280;30667;43.614;1.442;2022-09-12T08:08:08;99466.91;;;23.86;98.21
44934;BME280;30667;43.614;1.442;2022-09-12T08:10:34;99478.75;;;23.86;96.73
44934;BME280;30667;43.614;1.442;2022-09-12T08:12:59;99482.31;;;23.87;95.95
44934;BME280;30667;43.614;1.442;2022-09-12T08:15:25;99481.13;;;23.88;98.21
44934;BME280;30667;43.614;1.442;2022-09-12T08:17:50;99488.25;;;23.89;97.32
44934;BME280;30667;43.614;1.442;2022-09-12T08:20:15;99484.38;;;23.93;100.00
44934;BME280;30667;43.614;1.442;2022-09-12T08:22:42;99494.19;;;23.91;97.63
44934;BME280;30667;43.614;1.442;2022-09-12T08:25:08;99491.06;;;23.92;97.58
44934;BME280;30667;43.614;1.442;2022-09-12T08:27:34;99492.22;;;23.91;97.32
44934;BME280;30667;43.614;1.442;2022-09-12T08:29:59;99499.34;;;23.92;99.03
44934;BME280;30667;43.614;1.442;2022-09-12T08:32:25;99500.19;;;23.97;100.00
44934;BME280;30667;43.614;1.442;2022-09-12T08:34:50;99499.81;;;23.98;100.00
44934;BME280;30667;43.614;1.442;2022-09-12T08:37:16;99501.75;;;23.98;100.00
44934;BME280;30667;43.614;1.442;2022-09-12T08:39:41;99489.53;;;23.99;100.00
44934;BME280;30667;43.614;1.442;2022-09-12T08:42:09;99493.91;;;24.00;100.00
44934;BME280;30667;43.614;1.442;2022-09-12T08:44:54;99489.25;;;24.11;100.00
44934;BME280;30667;43.614;1.442;2022-09-12T08:47:31;99489.56;;;24.02;100.00
44934;BME280;30667;43.614;1.442;2022-09-12T08:55:57;99493.91;;;24.00;99.88
44934;BME280;30667;43.614;1.442;2022-09-12T08:58:26;99486.03;;;24.05;100.00
44934;BME280;30667;43.614;1.442;2022-09-12T09:14:30;99490.34;;;24.03;97.67
44934;BME280;30667;43.614;1.442;2022-09-12T09:17:33;99505.78;;;24.07;97.75
44934;BME280;30667;43.614;1.442;2022-09-12T09:20:31;99495.59;;;24.15;97.04
44934;BME280;30667;43.614;1.442;2022-09-12T09:25:48;99503.09;;;24.18;96.04
44934;BME280;30667;43.614;1.442;2022-09-12T09:28:19;99499.16;;;24.16;95.71
44934;BME280;30667;43.614;1.442;2022-09-12T09:30:47;99504.25;;;24.14;95.61
44934;BME280;30667;43.614;1.442;2022-09-12T09:33:25;99498.34;;;24.15;95.89
44934;BME280;30667;43.614;1.442;2022-09-12T09:39:26;99488.47;;;24.14;95.69
44934;BME280;30667;43.614;1.442;2022-09-12T09:42:07;99487.75;;;24.21;94.71
44934;BME280;30667;43.614;1.442;2022-09-12T09:44:37;99490.06;;;24.15;95.37
44934;BME280;30667;43.614;1.442;2022-09-12T09:47:03;99486.16;;;24.20;94.95
44934;BME280;30667;43.614;1.442;2022-09-12T09:49:32;99486.16;;;24.23;94.28
44934;BME280;30667;43.614;1.442;2022-09-12T09:51:59;99486.13;;;24.16;95.14
44934;BME280;30667;43.614;1.442;2022-09-12T09:54:38;99476.63;;;24.17;95.65
44934;BME280;30667;43.614;1.442;2022-09-12T10:05:30;99478.63;;;24.17;95.59
44934;BME280;30667;43.614;1.442;2022-09-12T10:07:57;99483.88;;;24.36;92.86
44934;BME280;30667;43.614;1.442;2022-09-12T10:10:23;99478.34;;;24.36;93.04
44934;BME280;30667;43.614;1.442;2022-09-12T10:12:49;99477.16;;;24.34;93.53
44934;BME280;30667;43.614;1.442;2022-09-12T10:15:17;99473.16;;;24.24;94.71
44934;BME280;30667;43.614;1.442;2022-09-12T10:17:47;99458.94;;;24.25;94.26
44934;BME280;30667;43.614;1.442;2022-09-12T10:20:37;99468.03;;;24.26;94.37
44934;BME280;30667;43.614;1.442;2022-09-12T10:23:33;99476.31;;;24.26;94.44
44934;BME280;30667;43.614;1.442;2022-09-12T10:26:07;99476.31;;;24.26;93.71
44934;BME280;30667;43.614;1.442;2022-09-12T10:28:39;99489.78;;;24.31;93.54
44934;BME280;30667;43.614;1.442;2022-09-12T10:31:07;99500.09;;;24.38;92.46
44934;BME280;30667;43.614;1.442;2022-09-12T10:33:40;99497.38;;;24.41;92.45
44934;BME280;30667;43.614;1.442;2022-09-12T10:36:07;99496.09;;;24.32;93.48
44934;BME280;30667;43.614;1.442;2022-09-12T10:38:32;99493.31;;;24.32;93.06
44934;BME280;30667;43.614;1.442;2022-09-12T10:41:06;99501.19;;;24.26;94.26
44934;BME280;30667;43.614;1.442;2022-09-12T10:46:02;99501.63;;;24.32;93.60
44934;BME280;30667;43.614;1.442;2022-09-12T10:48:51;99493.09;;;24.51;91.34
44934;BME280;30667;43.614;1.442;2022-09-12T10:51:36;99501.00;;;24.53;92.11
44934;BME280;30667;43.614;1.442;2022-09-12T10:54:03;99499.31;;;24.41;92.83
44934;BME280;30667;43.614;1.442;2022-09-12T10:56:35;99494.63;;;24.45;92.65
44934;BME280;30667;43.614;1.442;2022-09-12T11:04:35;99516.88;;;24.59;91.43
44934;BME280;30667;43.614;1.442;2022-09-12T11:12:57;99518.44;;;24.57;91.55
44934;BME280;30667;43.614;1.442;2022-09-12T11:20:33;99500.66;;;24.58;92.13
44934;BME280;30667;43.614;1.442;2022-09-12T11:31:54;99490.78;;;24.57;91.76
44934;BME280;30667;43.614;1.442;2022-09-12T11:40:00;99495.59;;;24.71;90.53
44934;BME280;30667;43.614;1.442;2022-09-12T11:42:34;99501.06;;;24.56;91.54
44934;BME280;30667;43.614;1.442;2022-09-12T11:47:35;99489.91;;;24.49;91.86
44934;BME280;30667;43.614;1.442;2022-09-12T11:50:05;99484.84;;;24.58;91.50
44934;BME280;30667;43.614;1.442;2022-09-12T11:52:38;99480.13;;;24.59;91.39
44934;BME280;30667;43.614;1.442;2022-09-12T11:55:10;99480.16;;;24.62;91.34
44934;BME280;30667;43.614;1.442;2022-09-12T11:57:46;99483.69;;;24.59;91.02
44934;BME280;30667;43.614;1.442;2022-09-12T12:00:22;99487.34;;;24.78;90.14
44934;BME280;30667;43.614;1.442;2022-09-12T12:05:52;99495.88;;;24.55;91.91
44934;BME280;30667;43.614;1.442;2022-09-12T12:08:22;99500.28;;;24.63;91.94
44934;BME280;30667;43.614;1.442;2022-09-12T12:11:09;99494.34;;;24.57;91.65
44934;BME280;30667;43.614;1.442;2022-09-12T12:13:39;99501.13;;;24.71;93.21
44934;BME280;30667;43.614;1.442;2022-09-12T12:16:36;99503.00;;;24.56;92.27
44934;BME280;30667;43.614;1.442;2022-09-12T12:19:17;99500.97;;;24.49;92.34
44934;BME280;30667;43.614;1.442;2022-09-12T12:21:50;99514.84;;;24.53;92.18
44934;BME280;30667;43.614;1.442;2022-09-12T12:24:24;99512.59;;;24.69;93.54
44934;BME280;30667;43.614;1.442;2022-09-12T12:34:41;99507.44;;;24.64;90.67
44934;BME280;30667;43.614;1.442;2022-09-12T12:40:07;99505.44;;;24.61;90.45
44934;BME280;30667;43.614;1.442;2022-09-12T12:50:11;99488.84;;;24.61;90.52
44934;BME280;30667;43.614;1.442;2022-09-12T12:55:54;99491.59;;;24.61;90.41
44934;BME280;30667;43.614;1.442;2022-09-12T13:01:03;99496.84;;;24.77;89.04
44934;BME280;30667;43.614;1.442;2022-09-12T13:03:32;99493.31;;;24.83;88.50
44934;BME280;30667;43.614;1.442;2022-09-12T13:06:04;99502.75;;;24.72;89.30
44934;BME280;30667;43.614;1.442;2022-09-12T13:08:39;99495.22;;;24.69;89.06
44934;BME280;30667;43.614;1.442;2022-09-12T13:11:13;99501.16;;;24.74;89.42
44934;BME280;30667;43.614;1.442;2022-09-12T13:13:48;99494.91;;;24.84;89.38
44934;BME280;30667;43.614;1.442;2022-09-12T13:16:36;99494.06;;;24.80;89.40
44934;BME280;30667;43.614;1.442;2022-09-12T13:19:05;99494.84;;;24.81;88.92
44934;BME280;30667;43.614;1.442;2022-09-12T13:21:32;99486.94;;;24.76;89.00
44934;BME280;30667;43.614;1.442;2022-09-12T13:24:03;99489.75;;;24.83;90.96
44934;BME280;30667;43.614;1.442;2022-09-12T13:26:34;99483.53;;;25.08;90.31
44934;BME280;30667;43.614;1.442;2022-09-12T13:29:17;99458.88;;;24.74;89.18
44934;BME280;30667;43.614;1.442;2022-09-12T13:32:03;99451.03;;;24.83;90.11
44934;BME280;30667;43.614;1.442;2022-09-12T13:34:33;99457.25;;;24.65;89.26
44934;BME280;30667;43.614;1.442;2022-09-12T13:42:44;99437.69;;;25.10;89.36
44934;BME280;30667;43.614;1.442;2022-09-12T13:45:23;99427.34;;;24.96;88.20
44934;BME280;30667;43.614;1.442;2022-09-12T13:47:52;99398.44;;;24.83;89.63
44934;BME280;30667;43.614;1.442;2022-09-12T13:50:23;99400.00;;;24.84;88.39
44934;BME280;30667;43.614;1.442;2022-09-12T13:52:52;99402.88;;;25.06;89.06
44934;BME280;30667;43.614;1.442;2022-09-12T13:55:33;99389.38;;;24.97;90.19
44934;BME280;30667;43.614;1.442;2022-09-12T13:58:23;99390.19;;;24.97;90.19
44934;BME280;30667;43.614;1.442;2022-09-12T14:01:13;99385.06;;;24.96;89.90
44934;BME280;30667;43.614;1.442;2022-09-12T14:06:51;99372.00;;;24.93;88.70
44934;BME280;30667;43.614;1.442;2022-09-12T14:09:32;99361.72;;;24.97;88.19
44934;BME280;30667;43.614;1.442;2022-09-12T14:11:59;99342.38;;;25.00;89.76
44934;BME280;30667;43.614;1.442;2022-09-12T14:14:34;99339.16;;;24.84;88.30
44934;BME280;30667;43.614;1.442;2022-09-12T14:17:14;99327.69;;;24.75;88.56
44934;BME280;30667;43.614;1.442;2022-09-12T14:19:40;99322.16;;;24.82;88.90
44934;BME280;30667;43.614;1.442;2022-09-12T14:22:11;99321.78;;;24.94;88.46
44934;BME280;30667;43.614;1.442;2022-09-12T14:24:46;99325.31;;;24.84;88.30
44934;BME280;30667;43.614;1.442;2022-09-12T14:27:16;99321.34;;;24.78;88.40
44934;BME280;30667;43.614;1.442;2022-09-12T14:29:43;99318.19;;;24.79;88.82
44934;BME280;30667;43.614;1.442;2022-09-12T14:32:22;99319.00;;;24.80;88.79
44934;BME280;30667;43.614;1.442;2022-09-12T14:35:17;99300.09;;;25.18;88.34
44934;BME280;30667;43.614;1.442;2022-09-12T14:37:47;99304.81;;;25.10;87.01
44934;BME280;30667;43.614;1.442;2022-09-12T14:40:17;99308.38;;;25.14;86.65
44934;BME280;30667;43.614;1.442;2022-09-12T14:42:43;99296.06;;;24.94;87.67
44934;BME280;30667;43.614;1.442;2022-09-12T14:47:42;99301.63;;;25.01;89.62
44934;BME280;30667;43.614;1.442;2022-09-12T14:50:17;99306.00;;;25.02;87.38
44934;BME280;30667;43.614;1.442;2022-09-12T14:52:44;99327.72;;;24.96;87.92
44934;BME280;30667;43.614;1.442;2022-09-12T14:57:41;99308.31;;;24.86;90.76
44934;BME280;30667;43.614;1.442;2022-09-12T15:02:37;99304.41;;;24.97;89.73
44934;BME280;30667;43.614;1.442;2022-09-12T15:15:29;99288.22;;;25.07;88.89
44934;BME280;30667;43.614;1.442;2022-09-12T15:17:54;99281.84;;;24.95;88.56
44934;BME280;30667;43.614;1.442;2022-09-12T15:20:20;99283.84;;;25.09;88.63
44934;BME280;30667;43.614;1.442;2022-09-12T15:22:46;99288.19;;;25.03;88.93
44934;BME280;30667;43.614;1.442;2022-09-12T15:25:12;99284.22;;;24.86;89.38
44934;BME280;30667;43.614;1.442;2022-09-12T15:27:37;99279.09;;;24.88;89.46
44934;BME280;30667;43.614;1.442;2022-09-12T15:30:07;99279.88;;;24.85;90.07
44934;BME280;30667;43.614;1.442;2022-09-12T15:32:34;99283.03;;;24.83;89.14
44934;BME280;30667;43.614;1.442;2022-09-12T15:35:00;99277.50;;;24.83;89.11
44934;BME280;30667;43.614;1.442;2022-09-12T15:37:26;99279.50;;;25.05;94.16
44934;BME280;30667;43.614;1.442;2022-09-12T15:39:52;99275.16;;;25.04;91.32
44934;BME280;30667;43.614;1.442;2022-09-12T15:42:27;99274.75;;;24.94;92.18
44934;BME280;30667;43.614;1.442;2022-09-12T15:44:53;99280.31;;;25.23;94.84
44934;BME280;30667;43.614;1.442;2022-09-12T15:47:18;99283.06;;;25.05;89.33
44934;BME280;30667;43.614;1.442;2022-09-12T15:49:44;99278.69;;;24.90;89.54
44934;BME280;30667;43.614;1.442;2022-09-12T15:52:14;99268.00;;;24.95;90.52
44934;BME280;30667;43.614;1.442;2022-09-12T15:54:39;99262.09;;;25.04;92.99
44934;BME280;30667;43.614;1.442;2022-09-12T15:57:05;99260.53;;;24.96;92.09
44934;BME280;30667;43.614;1.442;2022-09-12T15:59:31;99263.28;;;25.14;96.60
44934;BME280;30667;43.614;1.442;2022-09-12T16:01:56;99265.66;;;25.15;97.83
44934;BME280;30667;43.614;1.442;2022-09-12T16:04:24;99269.22;;;25.16;92.29
44934;BME280;30667;43.614;1.442;2022-09-12T16:06:50;99270.44;;;25.51;97.42